Schedule Details


Flight Number: CTN491
Departure: Krk Island (LDRI) at 15:45
Arrival: Franjo Tudman (LDZA) at 16:20
Route: KULEN M986 KOTOR

Weather Information
LDRI 192300Z VRB04KT CAVOK 19/08 Q1020
LDZA 192300Z 25004KT 4000 MIFG NSC 08/07 Q1023 NOSIG
Schedule Frequency

Route Map